Time;durP1;ratioP1;P1;durP2;ratioP2;P2;SDS_P1;SDS_P2;PMS_P1;PMS_P2;Temp;Humidity;BMP_temperature;BMP_pressure;BME280_temperature;BME280_humidity;BME280_pressure;Samples;Min_cycle;Max_cycle;Signal;HPM_P1;HPM_P2
2021/03/05 00:02:17;;;;;;;17.65;8.35;;;2.50;99.90;;;;;;5050412;28;20028;-61
2021/03/05 00:04:42;;;;;;;15.65;7.32;;;2.50;99.90;;;;;;5051041;28;20056;-61
2021/03/05 00:07:08;;;;;;;19.88;8.63;;;2.40;99.90;;;;;;5051136;28;20035;-61
2021/03/05 00:09:33;;;;;;;18.00;7.28;;;2.40;99.90;;;;;;5050793;28;20099;-61
2021/03/05 00:11:59;;;;;;;17.10;6.65;;;2.40;99.90;;;;;;5051247;28;20025;-61
2021/03/05 00:14:24;;;;;;;17.33;7.57;;;2.40;99.90;;;;;;5050832;28;20440;-59
2021/03/05 00:16:50;;;;;;;18.58;7.38;;;2.40;99.90;;;;;;5049766;28;20029;-60
2021/03/05 00:19:15;;;;;;;18.25;6.90;;;2.40;99.90;;;;;;5050799;28;20519;-61
2021/03/05 00:21:41;;;;;;;16.52;8.65;;;2.40;99.90;;;;;;5049516;28;20059;-60
2021/03/05 00:24:07;;;;;;;17.75;7.78;;;2.30;99.90;;;;;;5050407;28;20032;-61
2021/03/05 00:26:32;;;;;;;19.90;8.82;;;2.30;99.90;;;;;;5050882;28;20438;-61
2021/03/05 00:28:58;;;;;;;22.98;9.55;;;2.30;99.90;;;;;;5050479;28;20119;-60
2021/03/05 00:31:23;;;;;;;24.85;10.02;;;2.30;99.90;;;;;;5049858;28;20196;-61
2021/03/05 00:33:49;;;;;;;19.73;9.07;;;2.20;99.90;;;;;;5050520;28;20100;-59
2021/03/05 00:36:14;;;;;;;19.95;9.93;;;2.20;99.90;;;;;;5050734;28;20528;-59
2021/03/05 00:38:40;;;;;;;19.95;9.15;;;2.20;99.90;;;;;;5050366;28;20025;-61
2021/03/05 00:41:05;;;;;;;21.40;11.50;;;2.20;99.90;;;;;;5050658;28;20028;-61
2021/03/05 00:43:31;;;;;;;19.65;11.57;;;2.20;99.90;;;;;;5050498;28;20538;-60
2021/03/05 00:45:57;;;;;;;29.70;13.13;;;2.20;99.90;;;;;;5044220;28;20049;-60
2021/03/05 00:48:22;;;;;;;22.25;12.90;;;2.20;99.90;;;;;;5030707;28;20108;-57
2021/03/05 00:50:48;;;;;;;20.95;12.15;;;2.20;99.90;;;;;;5038572;28;20075;-59
2021/03/05 00:53:14;;;;;;;20.50;11.13;;;2.10;99.90;;;;;;5052074;28;20053;-60
2021/03/05 00:55:40;;;;;;;23.95;12.88;;;2.10;99.90;;;;;;5052260;28;20041;-60
2021/03/05 00:58:05;;;;;;;30.40;12.80;;;2.10;99.90;;;;;;5052457;28;20031;-61
2021/03/05 01:00:31;;;;;;;27.65;13.45;;;2.00;99.90;;;;;;5052387;28;20048;-60
2021/03/05 01:02:57;;;;;;;18.38;10.23;;;2.00;99.90;;;;;;5051571;28;20032;-61
2021/03/05 01:05:23;;;;;;;17.92;10.48;;;1.90;99.90;;;;;;5052280;28;20033;-59
2021/03/05 01:07:48;;;;;;;20.90;10.60;;;1.80;99.90;;;;;;5052115;28;20025;-61
2021/03/05 01:10:14;;;;;;;23.25;12.18;;;1.80;99.90;;;;;;5052318;28;20025;-60
2021/03/05 01:12:40;;;;;;;25.25;11.45;;;1.70;99.90;;;;;;5052242;28;20029;-60
2021/03/05 01:15:07;;;;;;;28.52;13.07;;;1.60;99.90;;;;;;5052162;28;20025;-60
2021/03/05 01:17:32;;;;;;;21.55;11.70;;;1.40;99.90;;;;;;5051242;28;20047;-60
2021/03/05 01:19:59;;;;;;;25.23;12.57;;;1.20;99.90;;;;;;5052091;28;20033;-59
2021/03/05 01:22:24;;;;;;;22.92;13.85;;;1.10;99.90;;;;;;5050595;28;20059;-59
2021/03/05 01:24:50;;;;;;;29.30;15.20;;;1.00;99.90;;;;;;5052021;28;20030;-60
2021/03/05 01:27:15;;;;;;;22.05;12.40;;;0.90;99.90;;;;;;5052245;28;20032;-61
2021/03/05 01:29:41;;;;;;;26.23;12.90;;;0.80;99.90;;;;;;5052108;28;20036;-61
2021/03/05 01:32:06;;;;;;;26.40;13.05;;;0.70;99.90;;;;;;5051226;28;20380;-60
2021/03/05 01:34:32;;;;;;;30.60;13.48;;;0.60;99.90;;;;;;5052074;28;20104;-60
2021/03/05 01:36:57;;;;;;;26.00;12.88;;;0.50;99.90;;;;;;5051924;28;20029;-60
2021/03/05 01:39:23;;;;;;;21.33;11.57;;;0.40;99.90;;;;;;5052471;28;20021;-61
2021/03/05 01:41:48;;;;;;;26.17;10.73;;;0.30;99.90;;;;;;5055778;28;20036;-58
2021/03/05 01:44:15;;;;;;;26.20;12.82;;;0.20;99.90;;;;;;5055814;28;20468;-61
2021/03/05 01:46:41;;;;;;;22.90;11.05;;;0.10;99.90;;;;;;5054682;28;20024;-61
2021/03/05 01:49:07;;;;;;;21.00;10.50;;;0.00;99.90;;;;;;5055596;28;20021;-61
2021/03/05 01:51:34;;;;;;;22.48;12.52;;;-0.10;99.90;;;;;;5055446;28;20029;-61
2021/03/05 01:54:00;;;;;;;26.08;10.45;;;-0.20;99.90;;;;;;5054039;28;20088;-61
2021/03/05 01:56:47;;;;;;;22.45;11.45;;;-0.20;99.90;;;;;;5055412;28;20109;-61
2021/03/05 01:59:16;;;;;;;27.10;10.85;;;-0.30;99.90;;;;;;5055509;28;20025;-60
2021/03/05 02:01:42;;;;;;;24.50;10.50;;;-0.40;99.90;;;;;;5054371;28;20044;-60
2021/03/05 02:04:09;;;;;;;22.45;10.18;;;-0.50;99.90;;;;;;5055351;28;20035;-60
2021/03/05 02:06:36;;;;;;;24.30;10.55;;;-0.50;99.90;;;;;;5055216;28;20017;-61
2021/03/05 02:09:03;;;;;;;25.73;11.25;;;-0.60;99.90;;;;;;5055147;28;20056;-58
2021/03/05 02:11:28;;;;;;;23.92;9.00;;;-0.70;99.90;;;;;;5055239;28;20021;-61
2021/03/05 02:13:56;;;;;;;23.48;8.85;;;-0.70;99.90;;;;;;5055253;28;20083;-61
2021/03/05 02:16:38;;;;;;;23.20;10.20;;;-0.90;99.90;;;;;;5052871;28;20025;-60
2021/03/05 02:19:49;;;;;;;29.10;9.65;;;-0.90;99.90;;;;;;5054996;28;20392;-60
2021/03/05 02:22:52;;;;;;;21.80;9.23;;;-1.00;99.90;;;;;;5039150;28;20033;-61
2021/03/05 02:25:59;;;;;;;17.42;7.30;;;-1.10;99.90;;;;;;5054732;28;20053;-61
2021/03/05 02:28:49;;;;;;;27.67;8.52;;;-1.10;99.90;;;;;;5055001;28;20104;-58
2021/03/05 02:31:20;;;;;;;21.92;8.10;;;-1.20;99.90;;;;;;5053630;28;20473;-59
2021/03/05 02:33:51;;;;;;;18.77;6.90;;;-1.40;99.90;;;;;;5054950;28;20028;-61
2021/03/05 02:36:24;;;;;;;23.77;7.00;;;-1.50;99.90;;;;;;5054701;28;20130;-60
2021/03/05 02:39:16;;;;;;;20.90;7.75;;;-1.60;99.90;;;;;;5054527;28;20044;-61
2021/03/05 02:41:44;;;;;;;17.02;6.68;;;-1.70;99.90;;;;;;5049358;28;20032;-61
2021/03/05 02:44:18;;;;;;;14.00;5.80;;;-1.70;99.90;;;;;;5054661;28;20108;-60
2021/03/05 02:46:43;;;;;;;17.85;7.25;;;-1.80;99.90;;;;;;5053641;28;20025;-61
2021/03/05 02:49:16;;;;;;;17.92;6.65;;;-1.80;99.90;;;;;;5054503;28;20542;-61
2021/03/05 02:51:43;;;;;;;30.48;7.60;;;-1.80;99.90;;;;;;5054345;28;20035;-61
2021/03/05 02:54:11;;;;;;;15.50;6.47;;;-1.80;99.90;;;;;;5054185;28;20057;-61
2021/03/05 02:56:38;;;;;;;21.55;6.57;;;-1.80;99.90;;;;;;5054279;28;20029;-61
2021/03/05 02:59:06;;;;;;;26.35;7.40;;;-1.90;99.90;;;;;;5054329;28;20495;-61
2021/03/05 03:01:32;;;;;;;21.23;6.43;;;-1.90;99.90;;;;;;5053377;28;20013;-60
2021/03/05 03:04:00;;;;;;;22.17;6.20;;;-2.00;99.90;;;;;;5054307;28;20021;-61
2021/03/05 03:06:26;;;;;;;17.35;7.07;;;-2.00;99.90;;;;;;5054163;28;20027;-61
2021/03/05 03:08:56;;;;;;;16.60;6.05;;;-2.00;99.90;;;;;;5054046;28;20075;-61
2021/03/05 03:11:22;;;;;;;29.58;6.47;;;-2.00;99.90;;;;;;5053888;28;20099;-59
2021/03/05 03:13:48;;;;;;;18.33;6.10;;;-2.10;99.90;;;;;;5052874;28;20453;-61
2021/03/05 03:16:16;;;;;;;17.88;5.28;;;-2.10;99.90;;;;;;5052900;28;20056;-61
2021/03/05 03:18:43;;;;;;;15.93;5.95;;;-2.10;99.90;;;;;;5053948;28;20017;-61
2021/03/05 03:21:09;;;;;;;13.85;5.32;;;-2.10;99.90;;;;;;5053729;28;20047;-60
2021/03/05 03:23:35;;;;;;;17.83;5.07;;;-2.20;99.90;;;;;;5053809;28;20100;-61
2021/03/05 03:26:02;;;;;;;15.18;5.15;;;-2.20;99.90;;;;;;5053517;28;20031;-61
2021/03/05 03:28:28;;;;;;;13.93;4.88;;;-2.20;99.90;;;;;;5053882;28;20074;-59
2021/03/05 03:30:53;;;;;;;22.80;4.50;;;-2.30;99.90;;;;;;5052717;28;20037;-60
2021/03/05 03:33:19;;;;;;;12.32;4.13;;;-2.30;99.90;;;;;;5053622;28;20071;-61
2021/03/05 03:35:46;;;;;;;14.07;3.70;;;-2.30;99.90;;;;;;5053484;28;20025;-60
2021/03/05 03:38:12;;;;;;;8.15;2.85;;;-2.40;99.90;;;;;;5053353;28;20029;-59
2021/03/05 03:40:39;;;;;;;15.52;3.90;;;-2.40;99.90;;;;;;5053408;28;20032;-61
2021/03/05 03:43:05;;;;;;;14.10;4.57;;;-2.50;99.90;;;;;;5053532;28;20029;-61
2021/03/05 03:45:31;;;;;;;16.13;4.30;;;-2.50;99.90;;;;;;5053539;28;20021;-60
2021/03/05 03:47:58;;;;;;;14.60;3.83;;;-2.60;99.90;;;;;;5052353;28;20028;-61
2021/03/05 03:50:59;;;;;;;11.35;3.90;;;-2.60;99.90;;;;;;5053333;28;20033;-60
2021/03/05 03:53:30;;;;;;;13.02;3.78;;;-2.70;99.90;;;;;;5052766;28;20172;-61
2021/03/05 03:55:56;;;;;;;10.68;2.78;;;-2.70;99.90;;;;;;5053035;28;20036;-61
2021/03/05 03:58:25;;;;;;;13.63;3.53;;;-2.80;99.90;;;;;;5053172;28;20025;-61
2021/03/05 04:00:53;;;;;;;13.88;3.25;;;-2.80;99.90;;;;;;5052192;28;20017;-60
2021/03/05 04:03:23;;;;;;;14.48;3.38;;;-2.80;99.90;;;;;;5052552;28;20049;-60
2021/03/05 04:05:51;;;;;;;9.35;3.17;;;-2.80;99.90;;;;;;5053043;28;20039;-61
2021/03/05 04:08:17;;;;;;;11.63;3.42;;;-2.80;99.90;;;;;;5052966;28;20559;-59
2021/03/05 04:10:43;;;;;;;13.65;4.15;;;-2.90;99.90;;;;;;5053104;28;20103;-60
2021/03/05 04:13:10;;;;;;;13.98;3.67;;;-2.90;99.90;;;;;;5052677;28;20120;-59
2021/03/05 04:15:37;;;;;;;18.88;4.50;;;-2.90;99.90;;;;;;5052891;28;20035;-61
2021/03/05 04:18:04;;;;;;;12.60;3.70;;;-3.00;99.90;;;;;;5051833;28;20414;-61
2021/03/05 04:20:30;;;;;;;16.67;3.90;;;-3.00;99.90;;;;;;5052907;28;20025;-60
2021/03/05 04:22:56;;;;;;;11.98;4.28;;;-3.10;99.90;;;;;;5052779;28;20044;-61
2021/03/05 04:25:22;;;;;;;10.48;2.85;;;-3.10;99.90;;;;;;5052631;28;20029;-61
2021/03/05 04:27:47;;;;;;;10.88;3.42;;;-3.10;99.90;;;;;;5052282;28;20112;-57
2021/03/05 04:30:13;;;;;;;11.57;3.78;;;-3.10;99.90;;;;;;5052614;28;20040;-60
2021/03/05 04:32:41;;;;;;;13.63;3.50;;;-3.20;99.90;;;;;;5051624;28;20104;-60
2021/03/05 04:35:08;;;;;;;12.50;3.00;;;-3.30;99.90;;;;;;5052648;28;20025;-61
2021/03/05 04:37:33;;;;;;;8.57;2.60;;;-3.20;99.90;;;;;;5052488;28;20037;-60
2021/03/05 04:39:59;;;;;;;10.20;2.90;;;-3.20;99.90;;;;;;5052577;28;20029;-61
2021/03/05 04:42:24;;;;;;;10.60;3.08;;;-3.20;99.90;;;;;;5052288;28;20048;-61
2021/03/05 04:44:50;;;;;;;8.00;2.83;;;-3.30;99.90;;;;;;5052540;28;20068;-60
2021/03/05 04:47:15;;;;;;;9.80;2.55;;;-3.30;99.90;;;;;;5051520;28;20029;-61
2021/03/05 04:49:41;;;;;;;15.00;3.88;;;-3.30;99.90;;;;;;5052588;28;20025;-61
2021/03/05 04:52:07;;;;;;;6.97;2.30;;;-3.30;99.90;;;;;;5050979;28;20029;-59
2021/03/05 04:54:32;;;;;;;10.10;2.83;;;-3.30;99.90;;;;;;5052373;28;20052;-60
2021/03/05 04:56:58;;;;;;;8.27;2.95;;;-3.30;99.90;;;;;;5052129;28;20032;-61
2021/03/05 04:59:23;;;;;;;13.63;3.25;;;-3.30;99.90;;;;;;5052320;28;20025;-61
2021/03/05 05:01:49;;;;;;;11.98;3.97;;;-3.20;99.90;;;;;;5051312;28;20025;-61
2021/03/05 05:04:15;;;;;;;11.30;4.00;;;-3.20;99.90;;;;;;5052415;28;20447;-60
2021/03/05 05:06:40;;;;;;;11.75;3.10;;;-3.20;99.90;;;;;;5052277;28;20062;-61
2021/03/05 05:09:06;;;;;;;12.68;2.80;;;-3.10;99.90;;;;;;5047875;28;20025;-63
2021/03/05 05:11:31;;;;;;;6.25;3.00;;;-3.20;99.90;;;;;;5048489;28;20452;-60
2021/03/05 05:13:57;;;;;;;9.50;3.00;;;-3.30;99.90;;;;;;5051463;28;20033;-61
2021/03/05 05:16:25;;;;;;;10.57;2.75;;;-3.30;99.90;;;;;;5054650;28;20032;-61
2021/03/05 05:18:51;;;;;;;7.53;3.17;;;-3.30;99.90;;;;;;5055694;28;20600;-61
2021/03/05 05:21:16;;;;;;;13.93;3.55;;;-3.40;99.90;;;;;;5055476;28;20139;-61
2021/03/05 05:23:42;;;;;;;14.32;3.00;;;-3.40;99.90;;;;;;5055562;28;20044;-61
2021/03/05 05:26:07;;;;;;;13.48;2.92;;;-3.40;99.90;;;;;;5055582;28;20095;-61
2021/03/05 05:28:33;;;;;;;5.60;2.60;;;-3.50;99.90;;;;;;5055202;28;20029;-60
2021/03/05 05:30:58;;;;;;;6.70;2.20;;;-3.50;99.90;;;;;;5053043;28;20051;-61
2021/03/05 05:33:24;;;;;;;12.50;3.28;;;-3.50;99.90;;;;;;5055339;28;20037;-61
2021/03/05 05:35:49;;;;;;;9.70;2.80;;;-3.50;99.90;;;;;;5055610;28;20418;-61
2021/03/05 05:38:15;;;;;;;9.52;2.35;;;-3.50;99.90;;;;;;5056927;28;20036;-61
2021/03/05 05:40:40;;;;;;;14.95;3.10;;;-3.50;99.90;;;;;;5075596;28;20028;-62
2021/03/05 05:43:06;;;;;;;7.55;2.38;;;-3.60;99.90;;;;;;5075107;28;20375;-61
2021/03/05 05:45:32;;;;;;;11.55;2.38;;;-3.60;99.90;;;;;;5075227;28;20049;-60
2021/03/05 05:47:59;;;;;;;10.05;3.33;;;-3.60;99.90;;;;;;5074171;28;20503;-60
2021/03/05 05:50:27;;;;;;;11.13;2.90;;;-3.60;99.90;;;;;;5071898;28;20029;-61
2021/03/05 05:52:55;;;;;;;13.95;2.97;;;-3.60;99.90;;;;;;5055031;28;20191;-61
2021/03/05 05:55:21;;;;;;;10.88;3.00;;;-3.60;99.90;;;;;;5055046;28;20053;-61
2021/03/05 05:57:47;;;;;;;10.35;3.30;;;-3.60;99.90;;;;;;5054840;28;20021;-61
2021/03/05 06:00:13;;;;;;;16.70;3.58;;;-3.60;99.90;;;;;;5054983;28;20456;-59
2021/03/05 06:02:44;;;;;;;7.82;3.20;;;-3.50;99.90;;;;;;5054004;28;20029;-61
2021/03/05 06:05:13;;;;;;;12.95;3.63;;;-3.50;99.90;;;;;;5055127;28;20032;-60
2021/03/05 06:07:41;;;;;;;18.10;3.70;;;-3.50;99.90;;;;;;5054910;28;20056;-59
2021/03/05 06:10:08;;;;;;;11.90;3.97;;;-3.40;99.90;;;;;;5055006;28;20146;-61
2021/03/05 06:12:33;;;;;;;14.85;3.83;;;-3.40;99.90;;;;;;5054769;28;20032;-61
2021/03/05 06:14:59;;;;;;;21.83;4.45;;;-3.40;99.90;;;;;;5048421;28;20024;-61
2021/03/05 06:17:41;;;;;;;12.57;3.78;;;-3.30;99.90;;;;;;5053494;28;20385;-59
2021/03/05 06:20:07;;;;;;;12.73;3.83;;;-3.30;99.90;;;;;;5055132;28;20484;-60
2021/03/05 06:22:33;;;;;;;20.25;4.28;;;-3.20;99.90;;;;;;5055061;28;20044;-61
2021/03/05 06:24:59;;;;;;;11.73;4.43;;;-2.80;99.90;;;;;;5051337;28;20472;-62
2021/03/05 06:27:29;;;;;;;26.05;5.75;;;-2.40;99.90;;;;;;5054347;28;20026;-62
2021/03/05 06:29:54;;;;;;;27.10;6.95;;;-1.50;99.90;;;;;;5054557;28;20021;-64
2021/03/05 06:32:20;;;;;;;27.70;6.68;;;-0.50;99.90;;;;;;5053828;28;20348;-62
2021/03/05 06:34:52;;;;;;;26.38;7.57;;;0.60;99.90;;;;;;5054692;28;20029;-62
2021/03/05 06:37:20;;;;;;;18.35;5.53;;;1.50;99.90;;;;;;5054426;28;20510;-62
2021/03/05 06:40:03;;;;;;;17.55;5.40;;;2.40;99.90;;;;;;5067338;28;20028;-65
2021/03/05 06:42:50;;;;;;;18.08;5.90;;;3.20;99.90;;;;;;5074310;28;20430;-64
2021/03/05 06:45:18;;;;;;;27.80;6.80;;;4.10;99.90;;;;;;5074299;28;20020;-63
2021/03/05 06:48:07;;;;;;;18.88;5.60;;;4.70;99.90;;;;;;5073723;28;20035;-63
2021/03/05 06:50:38;;;;;;;20.27;6.28;;;5.30;99.90;;;;;;5070251;28;20427;-64
2021/03/05 06:53:25;;;;;;;15.98;6.45;;;5.90;99.90;;;;;;5054417;28;20029;-62
2021/03/05 06:55:51;;;;;;;15.55;5.82;;;6.60;99.90;;;;;;5054220;28;20086;-63
2021/03/05 06:58:17;;;;;;;15.10;5.15;;;7.10;99.90;;;;;;5054113;28;20095;-63
2021/03/05 07:00:42;;;;;;;11.32;5.30;;;7.60;99.90;;;;;;5053606;28;20025;-64
2021/03/05 07:03:22;;;;;;;8.93;3.67;;;8.10;99.90;;;;;;5053939;28;20025;-64
2021/03/05 07:05:50;;;;;;;14.15;4.70;;;8.80;98.80;;;;;;5054135;28;20047;-63
2021/03/05 07:08:39;;;;;;;9.40;4.30;;;9.20;95.80;;;;;;5054003;28;20039;-63
2021/03/05 07:11:08;;;;;;;12.52;4.57;;;9.80;91.00;;;;;;5054190;28;20025;-65
2021/03/05 07:13:48;;;;;;;10.30;4.03;;;10.30;93.00;;;;;;5053967;28;20365;-64
2021/03/05 07:16:13;;;;;;;9.02;3.83;;;10.70;79.80;;;;;;5052816;28;20025;-63
2021/03/05 07:18:39;;;;;;;10.35;4.00;;;11.10;88.10;;;;;;5053785;28;20132;-63
2021/03/05 07:21:08;;;;;;;10.80;4.18;;;11.50;88.40;;;;;;5054084;28;20021;-62
2021/03/05 07:23:34;;;;;;;8.07;3.40;;;11.70;85.80;;;;;;5053633;28;20021;-63
2021/03/05 07:26:00;;;;;;;8.10;3.10;;;12.00;83.70;;;;;;5053714;28;20029;-63
2021/03/05 07:28:26;;;;;;;10.05;2.90;;;12.30;85.30;;;;;;5052571;28;20031;-64
2021/03/05 07:30:52;;;;;;;5.88;2.60;;;12.60;84.00;;;;;;5052574;28;20021;-64
2021/03/05 07:33:19;;;;;;;3.80;2.40;;;12.80;82.20;;;;;;5053744;28;20021;-62
2021/03/05 07:35:46;;;;;;;8.38;2.28;;;13.00;79.60;;;;;;5053446;28;20077;-61
2021/03/05 07:38:18;;;;;;;6.85;2.33;;;13.10;80.30;;;;;;5053746;28;20475;-63
2021/03/05 07:40:44;;;;;;;4.68;2.25;;;13.40;79.70;;;;;;5072097;28;20028;-64
2021/03/05 07:43:10;;;;;;;7.50;2.40;;;13.50;79.70;;;;;;5073543;28;20402;-63
2021/03/05 07:45:36;;;;;;;4.22;1.98;;;13.60;78.60;;;;;;5073060;28;20115;-63
2021/03/05 07:48:03;;;;;;;4.82;2.08;;;13.80;77.20;;;;;;5072429;28;20139;-63
2021/03/05 07:50:29;;;;;;;4.72;2.20;;;13.30;76.10;;;;;;5069436;28;20075;-64
2021/03/05 07:52:58;;;;;;;5.07;2.10;;;13.20;76.10;;;;;;5053415;28;20043;-62
2021/03/05 07:55:37;;;;;;;6.00;2.22;;;13.30;76.40;;;;;;5052790;28;20045;-64
2021/03/05 07:58:03;;;;;;;5.13;2.15;;;13.80;70.60;;;;;;5053082;28;20033;-64
2021/03/05 08:00:53;;;;;;;4.13;1.95;;;14.10;76.00;;;;;;5053052;28;20096;-64
2021/03/05 08:03:23;;;;;;;4.97;1.85;;;14.50;67.80;;;;;;5053116;28;20032;-64
2021/03/05 08:05:50;;;;;;;5.43;1.88;;;14.70;73.40;;;;;;5052893;28;20095;-62
2021/03/05 08:08:23;;;;;;;4.55;1.65;;;14.70;71.40;;;;;;5051890;28;20040;-64
2021/03/05 08:10:51;;;;;;;2.88;1.90;;;14.90;68.90;;;;;;5052997;28;20073;-63
2021/03/05 08:13:43;;;;;;;4.82;1.67;;;15.20;70.70;;;;;;5052990;28;20025;-64
2021/03/05 08:16:31;;;;;;;3.13;1.50;;;15.20;66.00;;;;;;5051667;28;20441;-64
2021/03/05 08:19:06;;;;;;;3.30;1.45;;;15.30;60.80;;;;;;5052896;28;20109;-64
2021/03/05 08:21:50;;;;;;;3.90;1.52;;;15.40;67.60;;;;;;5052781;28;20429;-63
2021/03/05 08:24:20;;;;;;;3.88;1.60;;;15.60;60.50;;;;;;5052855;28;20059;-66
2021/03/05 08:27:02;;;;;;;4.20;1.35;;;15.70;68.70;;;;;;5052637;28;20440;-64
2021/03/05 08:30:04;;;;;;;3.53;1.40;;;15.80;67.80;;;;;;5052655;28;20028;-64
2021/03/05 08:35:05;;;;;;;2.40;1.10;;;16.00;68.30;;;;;;5052849;28;20036;-64
2021/03/05 08:37:40;;;;;;;1.20;1.00;;;16.00;65.80;;;;;;5038623;28;20029;-61
2021/03/05 08:40:12;;;;;;;1.60;1.20;;;16.00;64.30;;;;;;5058639;28;20147;-63
2021/03/05 08:42:41;;;;;;;3.55;0.95;;;15.90;63.90;;;;;;5051276;28;20029;-67
2021/03/05 08:45:21;;;;;;;2.85;1.38;;;15.80;62.70;;;;;;5052352;28;20025;-66
2021/03/05 08:47:50;;;;;;;2.30;1.30;;;15.70;54.90;;;;;;5050898;28;20029;-67
2021/03/05 08:50:18;;;;;;;3.17;1.55;;;15.60;60.70;;;;;;5052067;28;20029;-66
2021/03/05 08:52:47;;;;;;;2.50;1.85;;;15.50;57.40;;;;;;5067739;28;20026;-66
2021/03/05 08:55:13;;;;;;;2.35;1.63;;;15.20;58.90;;;;;;5051948;28;20052;-66
2021/03/05 08:57:44;;;;;;;3.13;1.17;;;15.00;59.50;;;;;;5052190;28;20021;-65
2021/03/05 09:00:15;;;;;;;3.35;1.05;;;15.10;59.80;;;;;;5052247;28;20021;-67
2021/03/05 09:02:42;;;;;;;3.30;1.10;;;15.00;59.70;;;;;;5051087;28;20025;-66
2021/03/05 09:05:09;;;;;;;1.92;1.05;;;15.10;56.20;;;;;;5052256;28;20021;-65
2021/03/05 09:07:54;;;;;;;2.50;1.17;;;15.20;59.90;;;;;;5052018;28;20028;-66
2021/03/05 09:10:21;;;;;;;3.55;1.40;;;15.40;56.50;;;;;;5050880;28;20032;-66
2021/03/05 09:12:54;;;;;;;3.47;2.15;;;15.70;58.70;;;;;;5052023;28;20025;-68
2021/03/05 09:15:23;;;;;;;5.30;1.58;;;15.20;56.50;;;;;;5052068;28;20523;-66
2021/03/05 09:17:49;;;;;;;4.47;1.95;;;15.40;57.30;;;;;;5050902;28;20529;-67
2021/03/05 09:20:14;;;;;;;3.38;2.00;;;14.70;57.00;;;;;;5051823;28;20097;-67
2021/03/05 09:22:39;;;;;;;3.55;2.00;;;13.40;55.40;;;;;;5052050;28;20364;-66
2021/03/05 09:25:06;;;;;;;2.92;1.65;;;12.70;59.90;;;;;;5052001;28;20499;-65
2021/03/05 09:27:37;;;;;;;3.15;1.92;;;12.20;61.20;;;;;;5052027;28;20448;-66
2021/03/05 09:30:24;;;;;;;6.15;2.90;;;12.10;61.10;;;;;;5051856;28;20112;-66
2021/03/05 09:32:52;;;;;;;5.00;2.13;;;11.50;60.30;;;;;;5050646;28;20044;-65
2021/03/05 09:35:29;;;;;;;3.90;2.53;;;10.90;62.80;;;;;;5051908;28;20124;-65
2021/03/05 09:37:56;;;;;;;4.00;2.65;;;10.20;63.10;;;;;;5051936;28;20115;-66
2021/03/05 09:40:23;;;;;;;5.97;3.22;;;9.80;65.00;;;;;;5069697;28;20017;-65
2021/03/05 09:42:50;;;;;;;6.03;2.85;;;10.30;65.80;;;;;;5071899;28;20021;-65
2021/03/05 09:45:38;;;;;;;4.03;2.72;;;10.20;65.10;;;;;;5071690;28;20479;-66
2021/03/05 09:48:05;;;;;;;6.07;3.35;;;10.60;64.40;;;;;;5071714;28;20028;-66
2021/03/05 09:50:32;;;;;;;4.43;3.05;;;10.50;64.50;;;;;;5067517;28;20553;-66
2021/03/05 09:52:57;;;;;;;4.25;2.80;;;10.00;64.80;;;;;;5051733;28;20029;-65
2021/03/05 09:55:30;;;;;;;4.60;3.10;;;10.30;64.40;;;;;;5051648;28;20452;-66
2021/03/05 09:58:10;;;;;;;4.88;2.78;;;10.50;64.40;;;;;;5050372;28;20033;-66
2021/03/05 10:00:36;;;;;;;4.63;2.38;;;10.50;63.20;;;;;;5051869;28;20017;-65
2021/03/05 10:03:09;;;;;;;3.95;2.42;;;10.70;62.30;;;;;;5054861;28;20108;-65
2021/03/05 10:05:38;;;;;;;3.35;2.22;;;10.80;62.40;;;;;;5055000;28;20017;-64
2021/03/05 10:08:12;;;;;;;5.40;2.55;;;10.70;62.50;;;;;;5055230;28;20021;-65
2021/03/05 10:11:01;;;;;;;3.10;1.95;;;10.70;62.50;;;;;;5055003;28;20029;-65
2021/03/05 10:13:45;;;;;;;4.25;2.10;;;10.10;62.20;;;;;;5055085;28;20032;-66
2021/03/05 10:16:18;;;;;;;4.15;2.20;;;10.30;61.70;;;;;;5053727;28;20033;-66
2021/03/05 10:18:46;;;;;;;2.92;1.98;;;10.20;61.00;;;;;;5054807;28;20029;-64
2021/03/05 10:21:14;;;;;;;1.90;1.67;;;10.30;62.30;;;;;;5054737;28;20418;-64
2021/03/05 10:23:41;;;;;;;2.50;1.77;;;10.30;62.40;;;;;;5054856;28;20499;-65
2021/03/05 10:26:12;;;;;;;3.15;2.00;;;10.00;61.60;;;;;;5054793;28;20048;-64
2021/03/05 10:28:39;;;;;;;4.78;2.45;;;9.70;62.00;;;;;;5053752;28;20403;-65
2021/03/05 10:31:05;;;;;;;3.70;2.00;;;9.70;62.90;;;;;;5053392;28;20028;-64
2021/03/05 10:33:42;;;;;;;4.25;1.90;;;9.50;63.10;;;;;;5054757;28;20033;-64
2021/03/05 10:36:09;;;;;;;2.67;1.58;;;9.20;63.80;;;;;;5054493;28;20075;-66
2021/03/05 10:38:37;;;;;;;2.55;1.73;;;8.80;61.60;;;;;;5057588;28;20062;-65
2021/03/05 10:41:03;;;;;;;3.78;1.60;;;8.40;61.40;;;;;;5074526;28;20099;-66
2021/03/05 10:43:29;;;;;;;3.67;1.95;;;8.10;62.60;;;;;;5074423;28;20480;-66
2021/03/05 10:45:54;;;;;;;3.15;1.58;;;7.90;63.80;;;;;;5072959;28;20034;-65
2021/03/05 10:48:20;;;;;;;4.75;1.65;;;7.90;63.70;;;;;;5074485;28;20024;-65
2021/03/05 10:50:45;;;;;;;3.60;2.00;;;7.90;63.90;;;;;;5068020;28;20487;-65
2021/03/05 10:53:11;;;;;;;3.17;1.70;;;7.70;64.20;;;;;;5054278;28;20437;-65
2021/03/05 10:55:36;;;;;;;3.33;1.95;;;7.40;62.90;;;;;;5053968;28;20049;-63
2021/03/05 10:58:03;;;;;;;3.40;1.80;;;7.10;64.00;;;;;;5054085;28;20028;-65
2021/03/05 11:00:29;;;;;;;2.15;1.77;;;7.00;64.60;;;;;;5054038;28;20103;-64
2021/03/05 11:02:54;;;;;;;1.58;1.20;;;7.00;64.90;;;;;;5052680;28;20184;-65
2021/03/05 11:05:20;;;;;;;2.92;1.63;;;7.00;64.90;;;;;;5054109;28;20448;-65
2021/03/05 11:07:46;;;;;;;5.50;1.77;;;7.00;64.80;;;;;;5053941;28;20033;-65
2021/03/05 11:10:12;;;;;;;3.08;1.67;;;7.10;64.70;;;;;;5054207;28;20064;-65
2021/03/05 11:12:37;;;;;;;3.22;1.40;;;7.10;63.30;;;;;;5052724;28;20025;-65
2021/03/05 11:15:04;;;;;;;3.78;1.73;;;7.30;63.90;;;;;;5053877;28;20032;-65
2021/03/05 11:17:30;;;;;;;2.05;1.45;;;7.50;63.20;;;;;;5052506;28;20025;-65
2021/03/05 11:19:56;;;;;;;2.97;1.60;;;7.60;63.20;;;;;;5053872;28;20045;-64
2021/03/05 11:22:23;;;;;;;4.18;2.17;;;7.60;62.30;;;;;;5053634;28;20036;-66
2021/03/05 11:24:49;;;;;;;2.08;1.50;;;7.30;62.70;;;;;;5053784;28;20025;-64
2021/03/05 11:27:15;;;;;;;1.73;1.48;;;7.20;63.50;;;;;;5053660;28;20025;-65
2021/03/05 11:29:40;;;;;;;2.42;1.58;;;7.40;64.10;;;;;;5053550;28;20480;-63
2021/03/05 11:32:07;;;;;;;2.05;1.40;;;7.50;63.60;;;;;;5052218;28;20092;-65
2021/03/05 11:34:33;;;;;;;2.15;1.50;;;7.60;63.00;;;;;;5053757;28;20517;-65
2021/03/05 11:36:58;;;;;;;2.17;1.42;;;7.30;61.20;;;;;;5053529;28;20037;-65
2021/03/05 11:39:24;;;;;;;2.60;1.23;;;7.00;60.50;;;;;;5064711;28;20031;-64
2021/03/05 11:41:49;;;;;;;1.60;1.25;;;6.80;60.60;;;;;;5073210;28;20035;-65
2021/03/05 11:44:16;;;;;;;1.95;1.13;;;6.50;61.60;;;;;;5073400;28;20032;-64
2021/03/05 11:46:41;;;;;;;2.50;1.10;;;6.30;62.30;;;;;;5071947;28;20027;-66
2021/03/05 11:49:07;;;;;;;2.67;1.15;;;6.20;62.80;;;;;;5073286;28;20386;-64
2021/03/05 11:51:32;;;;;;;3.97;1.27;;;6.20;63.40;;;;;;5060577;28;20567;-65
2021/03/05 11:53:58;;;;;;;2.38;1.15;;;6.10;62.90;;;;;;5051764;28;20045;-61
2021/03/05 11:56:23;;;;;;;2.63;1.35;;;6.10;61.50;;;;;;5053049;28;20488;-65
2021/03/05 11:58:49;;;;;;;2.47;1.02;;;6.00;61.60;;;;;;5052805;28;20025;-63
2021/03/05 12:01:14;;;;;;;1.80;1.33;;;6.00;61.30;;;;;;5051842;28;20120;-65
2021/03/05 12:03:40;;;;;;;1.42;1.33;;;6.00;61.80;;;;;;5053314;28;20025;-64
2021/03/05 12:06:06;;;;;;;6.18;0.98;;;6.00;61.50;;;;;;5052855;28;20042;-65
2021/03/05 12:08:32;;;;;;;3.33;1.13;;;6.10;61.90;;;;;;5052934;28;20025;-64
2021/03/05 12:10:58;;;;;;;3.58;1.17;;;6.10;62.40;;;;;;5052887;28;20061;-64
2021/03/05 12:13:23;;;;;;;1.45;1.00;;;6.20;62.80;;;;;;5052600;28;20099;-65
2021/03/05 12:15:49;;;;;;;4.35;1.63;;;6.20;61.70;;;;;;5051473;28;20131;-65
2021/03/05 12:18:14;;;;;;;1.92;1.35;;;6.20;62.10;;;;;;5052636;28;20032;-65
2021/03/05 12:20:40;;;;;;;1.27;1.02;;;6.20;61.60;;;;;;5052858;28;20075;-65
2021/03/05 12:23:06;;;;;;;4.05;1.30;;;6.20;61.00;;;;;;5052041;28;20483;-65
2021/03/05 12:25:32;;;;;;;4.63;1.50;;;6.20;61.40;;;;;;5052825;28;20028;-65
2021/03/05 12:27:57;;;;;;;1.65;1.02;;;6.10;61.80;;;;;;5052265;28;20108;-65
2021/03/05 12:30:23;;;;;;;2.88;1.63;;;6.20;62.10;;;;;;5052665;28;20384;-65
2021/03/05 12:32:49;;;;;;;2.70;1.60;;;6.10;60.70;;;;;;5051040;28;20039;-63
2021/03/05 12:35:15;;;;;;;1.65;1.00;;;6.00;60.90;;;;;;5052673;28;20108;-63
2021/03/05 12:37:42;;;;;;;2.13;0.98;;;6.00;61.90;;;;;;5052233;28;20031;-65
2021/03/05 12:40:09;;;;;;;3.72;1.33;;;6.10;61.60;;;;;;5069591;28;20051;-65
2021/03/05 12:42:35;;;;;;;0.88;0.70;;;6.20;60.20;;;;;;5054300;28;20048;-65
2021/03/05 12:45:03;;;;;;;0.50;0.40;;;6.20;59.40;;;;;;5072613;28;20020;-65
2021/03/05 12:47:28;;;;;;;3.35;0.68;;;6.20;59.50;;;;;;5067040;28;20456;-63
2021/03/05 12:49:54;;;;;;;1.92;0.90;;;6.20;59.70;;;;;;5052052;28;20052;-65
2021/03/05 12:52:19;;;;;;;2.65;0.60;;;6.30;59.30;;;;;;5052047;28;20029;-65
2021/03/05 12:54:45;;;;;;;0.90;0.65;;;6.20;58.70;;;;;;5052332;28;20052;-64
2021/03/05 12:57:11;;;;;;;1.10;0.50;;;6.30;58.70;;;;;;5052030;28;20029;-64